Time;durP1;ratioP1;P1;durP2;ratioP2;P2;SDS_P1;SDS_P2;PMS_P1;PMS_P2;Temp;Humidity;BMP_temperature;BMP_pressure;BME280_temperature;BME280_humidity;BME280_pressure;Samples;Min_cycle;Max_cycle;Signal;HPM_P1;HPM_P2
2023/08/15 00:00:16;;;;;;;0.20;0.17;;;16.50;99.90;;;;;;5098703;28;20152;-69
2023/08/15 00:02:42;;;;;;;0.10;0.10;;;16.50;99.90;;;;;;5104786;27;20039;-69
2023/08/15 00:05:08;;;;;;;0.38;0.38;;;16.50;99.90;;;;;;5107622;27;20438;-69
2023/08/15 00:07:33;;;;;;;0.20;0.20;;;16.50;99.90;;;;;;5099445;27;20123;-69
2023/08/15 00:09:59;;;;;;;0.30;0.30;;;16.50;99.90;;;;;;5101003;27;20521;-69
2023/08/15 00:12:25;;;;;;;0.22;0.22;;;16.50;99.90;;;;;;5101689;27;20048;-69
2023/08/15 00:14:50;;;;;;;0.10;0.10;;;16.50;99.90;;;;;;5104929;27;20031;-69
2023/08/15 00:17:16;;;;;;;0.10;0.10;;;16.40;99.90;;;;;;5104704;27;20050;-70
2023/08/15 00:19:41;;;;;;;1.25;0.50;;;16.50;99.90;;;;;;5103794;27;20489;-69
2023/08/15 00:22:07;;;;;;;1.52;0.57;;;16.40;99.90;;;;;;5106188;27;20046;-69
2023/08/15 00:24:32;;;;;;;0.30;0.20;;;16.40;99.90;;;;;;5120512;27;20035;-69
2023/08/15 00:26:58;;;;;;;0.10;0.10;;;16.40;99.90;;;;;;5101998;27;20446;-69
2023/08/15 00:29:24;;;;;;;0.15;0.15;;;16.40;99.90;;;;;;5101014;27;20050;-69
2023/08/15 00:31:49;;;;;;;0.10;0.10;;;16.40;99.90;;;;;;5097030;27;20127;-69
2023/08/15 00:34:15;;;;;;;0.20;0.10;;;16.40;99.90;;;;;;5105058;27;20047;-69
2023/08/15 00:36:40;;;;;;;0.20;0.20;;;16.40;99.90;;;;;;5103724;27;20122;-69
2023/08/15 00:39:06;;;;;;;0.50;0.50;;;16.40;99.90;;;;;;5103811;27;20496;-69
2023/08/15 00:41:32;;;;;;;0.00;0.00;;;16.40;99.90;;;;;;5097410;27;20043;-69
2023/08/15 00:43:58;;;;;;;1.00;0.38;;;16.50;99.90;;;;;;5134610;27;20102;-69
2023/08/15 00:46:30;;;;;;;0.17;0.10;;;16.50;99.90;;;;;;5101292;27;20058;-69
2023/08/15 00:48:57;;;;;;;0.10;0.10;;;16.40;99.90;;;;;;5105019;27;20523;-69
2023/08/15 00:51:23;;;;;;;5.18;0.20;;;16.50;99.90;;;;;;5111113;27;20043;-69
2023/08/15 00:53:50;;;;;;;0.10;0.10;;;16.50;99.90;;;;;;5099054;27;20043;-69
2023/08/15 00:56:16;;;;;;;0.00;0.00;;;16.50;99.90;;;;;;5105644;27;20039;-69
2023/08/15 00:58:42;;;;;;;0.10;0.10;;;16.60;99.90;;;;;;5099176;27;20031;-69
2023/08/15 01:01:13;;;;;;;0.00;0.00;;;16.60;99.90;;;;;;5107627;27;20039;-69
2023/08/15 01:03:39;;;;;;;0.05;0.05;;;16.60;99.90;;;;;;5129770;27;20035;-69
2023/08/15 01:06:04;;;;;;;0.20;0.10;;;16.60;99.90;;;;;;5100761;27;20385;-69
2023/08/15 01:08:31;;;;;;;0.10;0.10;;;16.60;99.90;;;;;;5104455;27;20046;-69
2023/08/15 01:10:56;;;;;;;0.10;0.10;;;16.60;99.90;;;;;;5104063;27;20045;-68
2023/08/15 01:13:39;;;;;;;0.10;0.10;;;16.50;99.90;;;;;;5097771;27;20035;-68
2023/08/15 01:16:11;;;;;;;0.35;0.35;;;16.60;99.90;;;;;;5102801;27;20035;-68
2023/08/15 01:18:48;;;;;;;0.15;0.15;;;16.60;99.90;;;;;;5102909;27;20050;-69
2023/08/15 01:21:20;;;;;;;0.10;0.10;;;16.60;99.90;;;;;;5103958;27;20210;-68
2023/08/15 01:23:46;;;;;;;0.15;0.15;;;16.50;99.90;;;;;;5103947;27;20043;-69
2023/08/15 01:26:12;;;;;;;0.40;0.40;;;16.50;99.90;;;;;;5105570;27;20832;-69
2023/08/15 01:28:40;;;;;;;0.00;0.00;;;16.50;99.90;;;;;;5095169;27;20043;-68
2023/08/15 01:31:26;;;;;;;0.30;0.30;;;16.50;99.90;;;;;;5133268;27;20050;-68
2023/08/15 01:34:14;;;;;;;1.65;0.10;;;16.50;99.90;;;;;;5091706;27;20042;-69
2023/08/15 01:36:45;;;;;;;0.08;0.08;;;16.50;99.90;;;;;;5103358;27;20034;-69
2023/08/15 01:39:14;;;;;;;0.10;0.10;;;16.50;99.90;;;;;;5099049;27;20027;-68
2023/08/15 01:41:41;;;;;;;0.10;0.10;;;16.50;99.90;;;;;;5104329;27;20043;-69
2023/08/15 01:44:11;;;;;;;0.20;0.20;;;16.60;99.90;;;;;;5097894;27;20527;-69
2023/08/15 01:46:37;;;;;;;0.10;0.10;;;16.60;99.90;;;;;;5107751;27;20134;-69
2023/08/15 01:49:03;;;;;;;0.45;0.20;;;16.60;99.90;;;;;;5099314;27;20117;-69
2023/08/15 01:51:28;;;;;;;0.03;0.03;;;16.60;99.90;;;;;;5133583;27;20599;-69
2023/08/15 01:53:54;;;;;;;0.10;0.10;;;16.60;99.90;;;;;;5095694;27;20035;-69
2023/08/15 01:56:20;;;;;;;0.38;0.38;;;16.60;99.90;;;;;;5102990;27;20686;-69
2023/08/15 01:58:45;;;;;;;0.20;0.20;;;16.60;99.90;;;;;;5102184;27;20027;-69
2023/08/15 02:01:12;;;;;;;0.10;0.10;;;16.60;99.90;;;;;;5105087;27;20118;-69
2023/08/15 02:03:38;;;;;;;0.10;0.10;;;16.70;99.90;;;;;;5096892;27;20035;-70
2023/08/15 02:06:04;;;;;;;0.17;0.10;;;16.70;99.90;;;;;;5134812;27;20359;-69
2023/08/15 02:08:30;;;;;;;0.85;0.40;;;16.70;99.90;;;;;;5097470;27;20059;-69
2023/08/15 02:10:55;;;;;;;0.10;0.10;;;16.70;99.90;;;;;;5104275;27;20175;-69
2023/08/15 02:13:21;;;;;;;0.10;0.10;;;16.70;99.90;;;;;;5103968;27;20563;-69
2023/08/15 02:15:47;;;;;;;0.10;0.10;;;16.70;99.90;;;;;;5133296;27;20394;-69
2023/08/15 02:18:12;;;;;;;0.17;0.17;;;16.80;99.90;;;;;;5089664;27;20043;-69
2023/08/15 02:20:38;;;;;;;0.10;0.10;;;16.80;99.90;;;;;;5103329;27;20114;-69
2023/08/15 02:23:04;;;;;;;0.10;0.10;;;16.90;99.90;;;;;;5099478;27;20510;-69
2023/08/15 02:25:30;;;;;;;0.32;0.25;;;16.90;99.90;;;;;;5102211;27;20050;-69
2023/08/15 02:27:55;;;;;;;2.00;0.47;;;16.90;99.90;;;;;;5101062;27;20051;-69
2023/08/15 02:30:21;;;;;;;0.60;0.60;;;16.90;99.90;;;;;;5126977;27;20035;-69
2023/08/15 02:32:46;;;;;;;1.30;0.73;;;16.90;99.90;;;;;;5099524;27;20482;-70
2023/08/15 02:35:13;;;;;;;0.45;0.40;;;16.90;99.90;;;;;;5101613;27;20465;-69
2023/08/15 02:37:39;;;;;;;0.93;0.80;;;16.90;99.90;;;;;;5081993;27;20047;-69
2023/08/15 02:40:07;;;;;;;1.60;1.25;;;17.00;99.90;;;;;;5099547;27;20107;-69
2023/08/15 02:42:33;;;;;;;5.68;1.17;;;17.00;99.90;;;;;;5104142;28;20070;-70
2023/08/15 02:44:59;;;;;;;0.65;0.65;;;17.00;99.90;;;;;;5103577;27;20073;-70
2023/08/15 02:47:25;;;;;;;0.43;0.43;;;17.10;99.90;;;;;;5105279;27;20129;-69
2023/08/15 02:49:51;;;;;;;0.30;0.30;;;17.20;99.90;;;;;;5102656;27;20134;-69
2023/08/15 02:52:16;;;;;;;0.50;0.50;;;17.20;99.90;;;;;;5103569;27;20042;-69
2023/08/15 02:54:42;;;;;;;0.40;0.40;;;17.20;99.90;;;;;;5099831;27;20062;-69
2023/08/15 02:57:08;;;;;;;0.88;0.88;;;17.20;99.90;;;;;;5101694;27;20048;-69
2023/08/15 02:59:33;;;;;;;0.77;0.75;;;17.20;99.90;;;;;;5121709;27;20043;-69
2023/08/15 03:01:59;;;;;;;0.77;0.50;;;17.30;99.90;;;;;;5099364;27;20039;-69
2023/08/15 03:04:24;;;;;;;3.45;0.60;;;17.30;99.90;;;;;;5099539;28;20047;-69
2023/08/15 03:06:50;;;;;;;1.15;0.73;;;17.30;99.90;;;;;;5099770;28;20050;-69
2023/08/15 03:09:16;;;;;;;0.32;0.30;;;17.40;99.90;;;;;;5100186;27;20058;-70
2023/08/15 03:11:42;;;;;;;0.52;0.52;;;17.40;99.90;;;;;;5128602;27;20043;-70
2023/08/15 03:14:08;;;;;;;2.10;0.73;;;17.50;99.90;;;;;;5102916;28;20043;-69
2023/08/15 03:16:34;;;;;;;1.13;0.70;;;17.50;99.90;;;;;;5102866;28;20169;-69
2023/08/15 03:18:59;;;;;;;0.68;0.57;;;17.60;99.90;;;;;;5095779;27;20059;-70
2023/08/15 03:21:25;;;;;;;2.15;1.08;;;17.60;99.90;;;;;;5131567;27;20122;-70
2023/08/15 03:23:50;;;;;;;1.08;0.90;;;17.70;99.90;;;;;;5101123;28;20418;-70
2023/08/15 03:26:16;;;;;;;1.70;1.60;;;17.70;99.90;;;;;;5133692;27;20046;-69
2023/08/15 03:28:42;;;;;;;3.30;0.80;;;17.80;99.90;;;;;;5082716;28;21421;-70
2023/08/15 03:31:08;;;;;;;2.03;1.00;;;17.80;99.90;;;;;;5105076;28;20104;-70
2023/08/15 03:33:34;;;;;;;1.05;1.05;;;17.80;99.90;;;;;;5096424;28;20278;-70
2023/08/15 03:36:00;;;;;;;0.47;0.47;;;17.80;99.90;;;;;;5101370;27;20031;-70
2023/08/15 03:38:26;;;;;;;1.23;0.77;;;17.80;99.90;;;;;;5102639;27;20343;-70
2023/08/15 03:41:03;;;;;;;3.25;2.25;;;17.80;99.90;;;;;;5105808;27;20031;-70
2023/08/15 03:43:30;;;;;;;2.40;1.20;;;17.90;99.90;;;;;;5100229;27;20058;-69
2023/08/15 03:45:56;;;;;;;1.15;1.05;;;17.80;99.90;;;;;;5098703;27;20039;-70
2023/08/15 03:48:22;;;;;;;0.28;0.28;;;17.90;99.90;;;;;;5129093;27;20109;-69
2023/08/15 03:50:47;;;;;;;0.45;0.45;;;17.90;99.90;;;;;;5102259;27;20387;-69
2023/08/15 03:53:13;;;;;;;0.52;0.52;;;17.80;99.90;;;;;;5103899;27;20042;-70
2023/08/15 03:55:38;;;;;;;1.20;0.40;;;17.80;99.90;;;;;;5110638;27;20473;-69
2023/08/15 03:58:04;;;;;;;0.50;0.40;;;17.80;99.90;;;;;;5106606;27;20035;-70
2023/08/15 04:00:29;;;;;;;0.30;0.30;;;17.90;99.90;;;;;;5116646;27;20043;-69
2023/08/15 04:02:55;;;;;;;0.25;0.25;;;17.90;99.90;;;;;;5098954;27;20161;-69
2023/08/15 04:05:21;;;;;;;0.10;0.10;;;17.90;99.90;;;;;;5105749;27;20045;-69
2023/08/15 04:07:46;;;;;;;0.57;0.50;;;17.90;99.90;;;;;;5119780;27;20039;-69
2023/08/15 04:10:13;;;;;;;0.95;0.60;;;17.90;99.90;;;;;;5103142;27;20050;-69
2023/08/15 04:12:39;;;;;;;0.30;0.30;;;17.90;99.90;;;;;;5102462;27;20053;-69
2023/08/15 04:15:05;;;;;;;4.53;1.88;;;17.90;99.90;;;;;;5098161;28;20390;-70
2023/08/15 04:17:31;;;;;;;1.42;1.02;;;17.90;99.90;;;;;;5108907;27;20039;-70
2023/08/15 04:19:56;;;;;;;0.35;0.35;;;17.90;99.90;;;;;;5097840;28;20073;-70
2023/08/15 04:22:22;;;;;;;1.52;0.75;;;17.90;99.90;;;;;;5100180;27;20391;-69
2023/08/15 04:24:47;;;;;;;0.45;0.35;;;17.80;99.90;;;;;;5102086;27;20051;-69
2023/08/15 04:27:13;;;;;;;1.73;1.08;;;17.80;99.90;;;;;;5104103;27;20397;-69
2023/08/15 04:29:39;;;;;;;1.30;0.77;;;17.70;99.90;;;;;;5098945;27;20042;-69
2023/08/15 04:32:04;;;;;;;1.13;0.77;;;17.80;99.90;;;;;;5102850;27;20043;-69
2023/08/15 04:34:30;;;;;;;0.40;0.40;;;17.80;99.90;;;;;;5099819;27;20523;-68
2023/08/15 04:36:56;;;;;;;2.08;0.80;;;17.70;99.90;;;;;;5120069;27;20045;-69
2023/08/15 04:39:21;;;;;;;0.65;0.65;;;17.70;99.90;;;;;;5104153;27;20065;-69
2023/08/15 04:41:47;;;;;;;1.15;0.57;;;17.70;99.90;;;;;;5103828;27;20043;-68
2023/08/15 04:44:13;;;;;;;0.77;0.70;;;17.60;99.90;;;;;;5099615;27;20122;-70
2023/08/15 04:46:39;;;;;;;0.32;0.28;;;17.60;99.90;;;;;;5101154;27;20040;-69
2023/08/15 04:49:04;;;;;;;0.47;0.47;;;17.50;99.90;;;;;;5101877;27;20414;-70
2023/08/15 04:51:30;;;;;;;0.40;0.40;;;17.50;99.90;;;;;;5114783;27;20047;-69
2023/08/15 04:53:56;;;;;;;1.35;0.40;;;17.50;99.90;;;;;;5100100;28;20123;-69
2023/08/15 04:56:22;;;;;;;0.52;0.50;;;17.50;99.90;;;;;;5103474;27;20423;-70
2023/08/15 04:58:47;;;;;;;0.93;0.35;;;17.50;99.90;;;;;;5101495;27;20474;-70
2023/08/15 05:01:13;;;;;;;0.30;0.30;;;17.50;99.90;;;;;;5122929;27;20038;-70
2023/08/15 05:03:39;;;;;;;1.65;0.55;;;17.40;99.90;;;;;;5111502;27;20054;-71
2023/08/15 05:06:05;;;;;;;0.82;0.57;;;17.40;99.90;;;;;;5103874;27;20035;-70
2023/08/15 05:08:31;;;;;;;0.93;0.85;;;17.50;99.90;;;;;;5102425;27;20044;-70
2023/08/15 05:10:56;;;;;;;0.25;0.25;;;17.40;99.90;;;;;;5091132;27;20039;-70
2023/08/15 05:13:22;;;;;;;0.73;0.40;;;17.40;99.90;;;;;;5104769;27;20088;-69
2023/08/15 05:15:48;;;;;;;0.38;0.10;;;17.40;99.90;;;;;;5102849;27;20032;-69
2023/08/15 05:18:16;;;;;;;0.30;0.30;;;17.40;99.90;;;;;;5102827;27;20039;-69
2023/08/15 05:20:45;;;;;;;0.40;0.40;;;17.40;99.90;;;;;;5101814;27;20045;-70
2023/08/15 05:23:10;;;;;;;0.55;0.30;;;17.40;99.90;;;;;;5096316;27;20039;-70
2023/08/15 05:25:36;;;;;;;3.08;0.25;;;17.40;99.90;;;;;;5135474;27;20427;-70
2023/08/15 05:28:05;;;;;;;0.22;0.22;;;17.40;99.90;;;;;;5097330;27;20058;-70
2023/08/15 05:30:34;;;;;;;1.02;0.45;;;17.40;99.90;;;;;;5119641;27;20048;-69
2023/08/15 05:33:00;;;;;;;0.80;0.77;;;17.40;99.90;;;;;;5102392;27;20445;-70
2023/08/15 05:35:26;;;;;;;1.67;1.27;;;17.40;99.90;;;;;;5100195;27;20119;-67
2023/08/15 05:37:53;;;;;;;0.30;0.20;;;17.40;99.90;;;;;;5098740;27;20031;-68
2023/08/15 05:40:18;;;;;;;3.10;0.47;;;17.40;99.90;;;;;;5100349;27;20052;-67
2023/08/15 05:42:44;;;;;;;0.22;0.22;;;17.40;99.90;;;;;;5096816;27;20146;-69
2023/08/15 05:45:10;;;;;;;0.10;0.10;;;17.40;99.90;;;;;;5104210;27;20054;-70
2023/08/15 05:47:36;;;;;;;0.22;0.22;;;17.30;99.90;;;;;;5102525;27;20035;-70
2023/08/15 05:50:02;;;;;;;0.60;0.60;;;17.30;99.90;;;;;;5101847;27;20078;-70
2023/08/15 05:52:27;;;;;;;0.10;0.10;;;17.30;99.90;;;;;;5104276;27;20050;-70
2023/08/15 05:54:53;;;;;;;0.65;0.47;;;17.30;99.90;;;;;;5089744;27;20031;-70
2023/08/15 05:57:20;;;;;;;0.73;0.73;;;17.30;99.90;;;;;;5099534;27;20027;-70
2023/08/15 05:59:45;;;;;;;0.13;0.13;;;17.20;99.90;;;;;;5101089;27;20127;-70
2023/08/15 06:02:12;;;;;;;0.55;0.20;;;17.20;99.90;;;;;;5102089;27;20161;-69
2023/08/15 06:04:38;;;;;;;0.20;0.20;;;17.30;99.90;;;;;;5106636;27;20058;-70
2023/08/15 06:07:03;;;;;;;1.27;0.60;;;17.30;99.90;;;;;;5102414;27;20039;-70
2023/08/15 06:09:29;;;;;;;0.45;0.38;;;17.40;99.90;;;;;;5103531;27;20043;-69
2023/08/15 06:11:55;;;;;;;1.02;0.82;;;17.40;99.90;;;;;;5091970;27;20047;-70
2023/08/15 06:14:21;;;;;;;2.10;0.75;;;17.50;99.90;;;;;;5104180;27;20088;-70
2023/08/15 06:16:47;;;;;;;0.10;0.10;;;17.60;99.90;;;;;;5095199;27;20408;-70
2023/08/15 06:19:13;;;;;;;0.40;0.30;;;17.70;99.90;;;;;;5093211;27;20272;-70
2023/08/15 06:21:41;;;;;;;0.40;0.40;;;17.80;99.90;;;;;;5109745;27;20445;-69
2023/08/15 06:24:09;;;;;;;0.40;0.40;;;17.90;99.90;;;;;;5147822;27;20051;-70
2023/08/15 06:26:34;;;;;;;0.20;0.20;;;18.00;99.90;;;;;;5111976;27;20039;-70
2023/08/15 06:29:00;;;;;;;0.52;0.52;;;18.10;99.90;;;;;;5107573;27;20131;-70
2023/08/15 06:31:26;;;;;;;0.13;0.13;;;18.20;99.90;;;;;;5093840;27;20497;-69
2023/08/15 06:33:51;;;;;;;0.32;0.30;;;18.30;99.90;;;;;;5110678;27;20035;-69
2023/08/15 06:36:17;;;;;;;1.40;0.70;;;18.40;99.90;;;;;;5093440;27;20510;-70
2023/08/15 06:38:43;;;;;;;0.20;0.20;;;18.50;99.90;;;;;;5110254;27;20035;-70
2023/08/15 06:41:08;;;;;;;0.30;0.30;;;18.60;99.90;;;;;;5110430;27;20050;-70
2023/08/15 06:43:34;;;;;;;0.20;0.20;;;18.60;99.90;;;;;;5106205;27;20051;-70
2023/08/15 06:46:00;;;;;;;0.38;0.38;;;18.60;99.90;;;;;;5115557;27;20431;-70
2023/08/15 06:48:25;;;;;;;1.65;1.10;;;18.70;99.90;;;;;;5101481;28;20479;-70
2023/08/15 06:50:51;;;;;;;0.40;0.40;;;18.80;99.90;;;;;;5105608;27;20050;-69
2023/08/15 06:53:16;;;;;;;0.95;0.95;;;18.90;99.90;;;;;;5092990;27;20521;-69
2023/08/15 06:55:42;;;;;;;0.20;0.10;;;18.90;99.90;;;;;;5103905;27;20040;-69
2023/08/15 06:58:08;;;;;;;0.60;0.30;;;18.90;99.90;;;;;;5100942;27;20657;-69
2023/08/15 07:00:34;;;;;;;2.63;1.08;;;19.00;99.90;;;;;;5106131;27;20035;-69
2023/08/15 07:03:00;;;;;;;0.30;0.30;;;19.10;99.90;;;;;;5106726;27;20138;-69
2023/08/15 07:05:25;;;;;;;1.17;1.13;;;19.20;99.90;;;;;;5102085;27;20122;-69
2023/08/15 07:07:53;;;;;;;0.38;0.38;;;19.30;99.90;;;;;;5096453;27;20093;-69
2023/08/15 07:10:19;;;;;;;0.88;0.43;;;19.40;99.90;;;;;;5096528;27;20082;-68
2023/08/15 07:12:44;;;;;;;2.55;1.40;;;19.50;99.90;;;;;;5125523;27;20610;-69
2023/08/15 07:15:10;;;;;;;0.10;0.10;;;19.50;99.90;;;;;;5097855;28;20039;-69
2023/08/15 07:17:36;;;;;;;0.65;0.65;;;19.50;99.90;;;;;;5098129;28;20058;-67
2023/08/15 07:20:04;;;;;;;0.20;0.20;;;19.60;99.90;;;;;;5091789;28;20032;-68
2023/08/15 07:22:30;;;;;;;0.82;0.82;;;19.60;99.90;;;;;;5092394;28;20040;-68
2023/08/15 07:24:55;;;;;;;0.52;0.52;;;19.70;99.90;;;;;;5096933;28;20046;-68
2023/08/15 07:27:21;;;;;;;0.25;0.25;;;19.60;99.90;;;;;;5134182;27;20035;-68
2023/08/15 07:29:47;;;;;;;0.20;0.20;;;19.60;99.90;;;;;;5103438;28;20511;-69
2023/08/15 07:32:12;;;;;;;0.38;0.38;;;19.50;99.90;;;;;;5104241;28;20159;-68
2023/08/15 07:34:38;;;;;;;1.60;0.90;;;19.50;99.90;;;;;;5091736;28;20043;-67
2023/08/15 07:37:04;;;;;;;2.05;0.60;;;19.60;99.90;;;;;;5105075;28;20270;-67
2023/08/15 07:39:29;;;;;;;0.60;0.35;;;19.70;99.90;;;;;;5101513;28;20038;-67
2023/08/15 07:41:55;;;;;;;0.88;0.77;;;19.80;99.90;;;;;;5110358;27;20047;-67
2023/08/15 07:44:20;;;;;;;1.95;1.05;;;19.90;99.90;;;;;;5124810;28;20168;-68
2023/08/15 07:46:46;;;;;;;0.95;0.90;;;19.90;99.90;;;;;;5103048;28;20042;-68
2023/08/15 07:49:12;;;;;;;3.63;1.50;;;19.90;99.90;;;;;;5127124;27;20035;-69
2023/08/15 07:51:37;;;;;;;1.73;1.10;;;19.80;99.90;;;;;;5098613;28;20141;-67
2023/08/15 07:54:04;;;;;;;1.42;1.30;;;19.90;99.90;;;;;;5095232;27;20491;-67
2023/08/15 07:56:31;;;;;;;1.20;1.10;;;19.90;99.90;;;;;;5138958;27;20132;-68
2023/08/15 07:58:57;;;;;;;0.75;0.75;;;19.80;99.90;;;;;;5104474;28;20043;-68
2023/08/15 08:01:22;;;;;;;0.77;0.50;;;19.90;99.90;;;;;;5111318;28;20035;-66
2023/08/15 08:03:48;;;;;;;3.60;2.10;;;20.00;99.90;;;;;;5110630;28;20405;-68
2023/08/15 08:06:14;;;;;;;1.30;0.77;;;20.10;99.90;;;;;;5110775;28;20058;-69
2023/08/15 08:08:39;;;;;;;0.40;0.40;;;20.10;99.90;;;;;;5124577;28;20054;-68
2023/08/15 08:11:05;;;;;;;1.23;0.30;;;20.20;99.90;;;;;;5105135;28;20042;-69
2023/08/15 08:13:31;;;;;;;0.43;0.43;;;20.20;99.90;;;;;;5109955;28;20047;-67
2023/08/15 08:15:56;;;;;;;1.80;1.42;;;20.40;99.90;;;;;;5104857;27;20110;-67
2023/08/15 08:18:22;;;;;;;0.38;0.38;;;20.50;99.90;;;;;;5097184;28;20044;-69
2023/08/15 08:20:48;;;;;;;1.15;0.50;;;20.60;99.90;;;;;;5096052;28;20047;-68
2023/08/15 08:23:13;;;;;;;0.90;0.90;;;20.50;99.90;;;;;;5110495;27;20042;-68
2023/08/15 08:25:39;;;;;;;0.85;0.75;;;20.50;99.90;;;;;;5105326;27;20625;-67
2023/08/15 08:28:05;;;;;;;0.70;0.70;;;20.50;99.90;;;;;;5104013;28;20050;-65
2023/08/15 08:30:32;;;;;;;0.85;0.65;;;20.60;99.90;;;;;;5101673;27;20058;-65
2023/08/15 08:32:58;;;;;;;0.38;0.38;;;20.70;99.90;;;;;;5099372;27;20596;-65
2023/08/15 08:35:24;;;;;;;0.13;0.13;;;20.70;99.90;;;;;;5098308;27;20054;-65
2023/08/15 08:37:49;;;;;;;0.30;0.30;;;20.80;99.90;;;;;;5105805;27;20035;-64
2023/08/15 08:40:18;;;;;;;0.70;0.63;;;20.80;99.90;;;;;;5125877;27;20647;-65
2023/08/15 08:42:45;;;;;;;1.02;0.40;;;20.80;99.90;;;;;;5111540;27;20046;-64
2023/08/15 08:45:11;;;;;;;1.15;1.05;;;20.80;99.90;;;;;;5106718;27;20532;-64
2023/08/15 08:47:40;;;;;;;2.28;0.75;;;20.70;99.90;;;;;;5097894;27;20036;-65
2023/08/15 08:50:10;;;;;;;1.20;0.77;;;20.70;99.90;;;;;;5098334;27;20066;-66
2023/08/15 08:52:49;;;;;;;0.75;0.70;;;20.60;99.90;;;;;;5107403;27;20047;-65
2023/08/15 08:55:17;;;;;;;1.55;1.10;;;20.50;99.90;;;;;;5101075;27;20027;-65
2023/08/15 08:57:47;;;;;;;0.73;0.73;;;20.50;99.90;;;;;;5107551;27;20377;-66
2023/08/15 09:00:16;;;;;;;1.60;1.08;;;20.50;99.90;;;;;;5125503;27;20046;-66
2023/08/15 09:02:43;;;;;;;0.38;0.38;;;20.60;99.90;;;;;;5143646;27;20050;-67
2023/08/15 09:05:09;;;;;;;7.25;1.02;;;20.70;99.90;;;;;;5140681;27;20044;-67
2023/08/15 09:07:35;;;;;;;1.17;0.52;;;20.90;99.90;;;;;;5110652;27;20088;-67
2023/08/15 09:10:01;;;;;;;1.42;0.95;;;21.10;99.90;;;;;;5106645;27;20108;-66
2023/08/15 09:12:37;;;;;;;0.47;0.47;;;21.30;99.90;;;;;;5113551;27;20118;-67
2023/08/15 09:15:07;;;;;;;0.82;0.68;;;21.30;99.90;;;;;;5112316;27;20040;-66
2023/08/15 09:17:33;;;;;;;0.70;0.70;;;21.20;99.90;;;;;;5144740;27;20046;-70
2023/08/15 09:20:10;;;;;;;0.38;0.38;;;21.30;99.90;;;;;;5099297;27;20044;-66
2023/08/15 09:22:38;;;;;;;0.55;0.55;;;21.50;99.90;;;;;;5112440;27;20047;-66
2023/08/15 09:25:04;;;;;;;0.30;0.30;;;21.60;99.90;;;;;;5106558;27;20086;-67
2023/08/15 09:27:30;;;;;;;1.10;0.40;;;21.50;99.90;;;;;;5110697;27;20066;-66
2023/08/15 09:29:55;;;;;;;0.10;0.10;;;21.50;99.90;;;;;;5116175;27;20039;-66
2023/08/15 09:32:22;;;;;;;0.93;0.45;;;21.30;99.90;;;;;;5111411;27;20046;-65
2023/08/15 09:34:47;;;;;;;2.05;0.68;;;21.10;99.90;;;;;;5107560;27;20035;-66
2023/08/15 09:37:13;;;;;;;0.32;0.20;;;21.00;99.90;;;;;;5103634;27;21422;-67
2023/08/15 09:39:39;;;;;;;0.25;0.25;;;20.90;99.90;;;;;;5130408;27;20042;-65
2023/08/15 09:42:05;;;;;;;1.00;0.90;;;20.80;99.90;;;;;;5102866;27;20043;-66
2023/08/15 09:44:34;;;;;;;0.25;0.25;;;20.80;99.90;;;;;;5098132;27;20130;-65
2023/08/15 09:47:01;;;;;;;0.52;0.28;;;20.90;99.90;;;;;;5100265;27;20048;-66
2023/08/15 09:49:28;;;;;;;0.90;0.55;;;20.90;99.90;;;;;;5099161;27;20114;-69
2023/08/15 09:51:56;;;;;;;0.13;0.13;;;20.80;99.90;;;;;;5094861;27;20100;-67
2023/08/15 09:54:24;;;;;;;0.10;0.10;;;20.80;99.90;;;;;;5096252;27;20039;-68
2023/08/15 09:56:50;;;;;;;2.10;0.68;;;20.90;99.90;;;;;;5091872;27;20039;-67
2023/08/15 09:59:15;;;;;;;1.55;1.20;;;20.90;99.90;;;;;;5105798;27;20039;-65
2023/08/15 10:01:44;;;;;;;4.47;1.15;;;21.00;99.90;;;;;;5100991;27;20047;-67
2023/08/15 10:04:13;;;;;;;0.52;0.50;;;21.20;99.90;;;;;;5097273;27;20039;-66
2023/08/15 10:06:42;;;;;;;0.57;0.52;;;21.30;99.90;;;;;;5107202;27;20047;-67
2023/08/15 10:09:09;;;;;;;2.72;0.47;;;21.30;99.90;;;;;;5093760;27;20063;-65
2023/08/15 10:11:40;;;;;;;0.10;0.10;;;21.50;99.90;;;;;;5093980;27;20039;-66
2023/08/15 10:14:08;;;;;;;0.40;0.40;;;21.70;99.90;;;;;;5096136;27;20470;-68
2023/08/15 10:16:35;;;;;;;0.10;0.10;;;21.90;99.90;;;;;;5115052;27;20027;-67
2023/08/15 10:19:01;;;;;;;0.10;0.10;;;22.00;99.90;;;;;;5108909;27;20032;-66
2023/08/15 10:21:52;;;;;;;0.52;0.45;;;22.20;99.90;;;;;;5096131;27;20085;-67
2023/08/15 10:24:18;;;;;;;0.30;0.25;;;22.20;99.90;;;;;;5095622;27;20050;-67
2023/08/15 10:26:44;;;;;;;0.10;0.10;;;22.30;99.90;;;;;;5112910;27;20038;-67
2023/08/15 10:29:10;;;;;;;0.57;0.40;;;22.40;99.90;;;;;;5116073;27;20638;-66
2023/08/15 10:31:38;;;;;;;0.17;0.17;;;22.30;99.90;;;;;;5093941;27;20031;-67
2023/08/15 10:34:05;;;;;;;0.50;0.30;;;22.20;99.90;;;;;;5097166;27;20031;-66
2023/08/15 10:36:30;;;;;;;0.68;0.60;;;22.10;99.90;;;;;;5105344;27;20069;-66
2023/08/15 10:39:02;;;;;;;0.40;0.40;;;21.90;99.90;;;;;;5105117;28;20447;-67
2023/08/15 10:41:27;;;;;;;0.20;0.20;;;22.00;99.90;;;;;;5095390;28;20435;-68
2023/08/15 10:43:59;;;;;;;1.33;1.20;;;22.00;99.90;;;;;;5109387;27;20374;-68
2023/08/15 10:46:30;;;;;;;0.95;0.38;;;22.10;99.90;;;;;;5099070;27;20504;-69
2023/08/15 10:49:01;;;;;;;0.75;0.35;;;22.10;99.90;;;;;;5119042;27;20070;-68
2023/08/15 10:51:29;;;;;;;0.43;0.40;;;22.10;99.90;;;;;;5136767;27;20057;-68
2023/08/15 10:53:57;;;;;;;2.17;0.90;;;22.10;99.90;;;;;;5106539;27;20071;-67
2023/08/15 10:56:24;;;;;;;0.50;0.50;;;22.20;99.90;;;;;;5102134;27;20038;-68
2023/08/15 10:58:51;;;;;;;0.13;0.13;;;22.30;99.90;;;;;;5115706;27;20073;-68
2023/08/15 11:01:24;;;;;;;0.30;0.30;;;22.20;99.90;;;;;;5110074;27;20035;-69
2023/08/15 11:03:51;;;;;;;1.08;0.47;;;22.10;99.90;;;;;;5094626;28;20082;-70
2023/08/15 11:06:19;;;;;;;0.40;0.30;;;21.90;99.90;;;;;;5124081;27;20394;-69
2023/08/15 11:08:57;;;;;;;5.65;0.68;;;21.70;99.90;;;;;;5121416;27;20424;-67
2023/08/15 11:11:23;;;;;;;0.50;0.50;;;21.60;99.90;;;;;;5093060;28;20116;-68
2023/08/15 11:13:50;;;;;;;0.90;0.40;;;21.40;99.90;;;;;;5092292;28;20047;-69
2023/08/15 11:16:18;;;;;;;10.55;1.05;;;21.30;99.90;;;;;;5112047;27;20088;-69
2023/08/15 11:18:45;;;;;;;0.65;0.55;;;21.50;99.90;;;;;;5116579;28;20443;-68
2023/08/15 11:21:12;;;;;;;0.22;0.22;;;21.70;99.90;;;;;;5099475;28;20043;-69
2023/08/15 11:23:39;;;;;;;0.68;0.63;;;21.80;99.90;;;;;;5094687;28;20074;-71
2023/08/15 11:26:07;;;;;;;0.68;0.68;;;21.70;99.90;;;;;;5107713;28;20042;-69
2023/08/15 11:28:33;;;;;;;0.77;0.65;;;21.70;99.90;;;;;;5129050;28;20037;-69
2023/08/15 11:31:01;;;;;;;0.82;0.45;;;21.70;99.90;;;;;;5130100;28;20039;-68
2023/08/15 11:33:30;;;;;;;2.13;1.33;;;21.80;99.90;;;;;;5121927;28;20039;-68
2023/08/15 11:36:11;;;;;;;1.25;0.40;;;21.80;99.90;;;;;;5109825;28;20075;-67
2023/08/15 11:38:38;;;;;;;2.90;1.55;;;21.80;99.90;;;;;;5120953;28;20043;-68
2023/08/15 11:41:05;;;;;;;0.77;0.77;;;21.80;99.90;;;;;;5132052;27;20389;-67
2023/08/15 11:43:34;;;;;;;1.08;1.08;;;21.90;99.90;;;;;;5128392;28;20182;-67
2023/08/15 11:46:01;;;;;;;0.40;0.40;;;22.00;99.90;;;;;;5106430;28;20081;-68
2023/08/15 11:48:28;;;;;;;3.10;1.55;;;22.10;99.90;;;;;;5146734;27;20046;-69
2023/08/15 11:50:53;;;;;;;0.70;0.70;;;22.20;99.90;;;;;;5112778;28;20043;-68
2023/08/15 11:53:19;;;;;;;1.90;0.40;;;22.20;99.90;;;;;;5111685;28;20043;-69
2023/08/15 11:55:46;;;;;;;0.95;0.85;;;22.20;99.90;;;;;;5112602;28;20073;-69
2023/08/15 11:58:28;;;;;;;2.92;0.63;;;21.90;99.90;;;;;;5103858;27;20085;-67
2023/08/15 12:01:02;;;;;;;0.52;0.38;;;21.60;99.90;;;;;;5130407;27;20043;-67
2023/08/15 12:03:29;;;;;;;0.47;0.28;;;21.30;99.90;;;;;;5114772;27;20127;-68
2023/08/15 12:05:58;;;;;;;1.95;0.75;;;21.10;99.90;;;;;;5119352;27;20054;-69
2023/08/15 12:08:28;;;;;;;0.85;0.85;;;21.10;99.90;;;;;;5120584;27;20039;-68
2023/08/15 12:10:55;;;;;;;0.20;0.20;;;21.10;99.90;;;;;;5128894;27;20043;-68
2023/08/15 12:13:29;;;;;;;0.30;0.30;;;21.00;99.90;;;;;;5131873;27;20099;-68
2023/08/15 12:15:55;;;;;;;0.47;0.47;;;21.10;99.90;;;;;;5142616;27;20485;-68
2023/08/15 12:18:20;;;;;;;1.23;0.65;;;21.10;99.90;;;;;;5114054;27;20039;-67
2023/08/15 12:20:46;;;;;;;0.77;0.77;;;21.00;99.90;;;;;;5126802;27;20437;-67
2023/08/15 12:23:11;;;;;;;0.38;0.38;;;21.00;99.90;;;;;;5121662;27;20041;-69
2023/08/15 12:25:37;;;;;;;0.43;0.43;;;21.00;99.90;;;;;;5125532;27;20447;-69
2023/08/15 12:28:04;;;;;;;0.30;0.20;;;21.00;99.90;;;;;;5130823;27;20035;-68
2023/08/15 12:30:29;;;;;;;0.47;0.35;;;21.10;99.90;;;;;;5113168;27;20078;-68
2023/08/15 12:32:55;;;;;;;0.50;0.50;;;21.50;99.90;;;;;;5113597;27;20076;-68
2023/08/15 12:35:20;;;;;;;0.30;0.30;;;21.70;99.90;;;;;;5119613;27;20039;-69
2023/08/15 12:37:46;;;;;;;1.00;0.75;;;21.70;99.90;;;;;;5133029;27;20478;-69
2023/08/15 12:40:12;;;;;;;0.68;0.68;;;21.80;99.90;;;;;;5118750;27;20039;-70
2023/08/15 12:42:37;;;;;;;0.45;0.40;;;21.80;99.90;;;;;;5116034;27;20078;-68
2023/08/15 12:45:03;;;;;;;0.80;0.68;;;21.70;99.90;;;;;;5117663;27;20046;-69